General Aviation Weather

Text Reports

Enter one or more of the following location identifiers separated by a space:

Zip Code, Four-Character ICAO or Three-Character IATA airport codes.

METAR - Aviation Routine Weather Report
KMTO - Mattoon, Illinois
Updated at 2:28 AM GMT on January 26, 2015 (8:28 PM CST):
SPECI KMTO 260228Z AUTO 02021G30KT 10SM BKN015 OVC021 M01/M04 A2985 RMK AO2 PK WND 03030/0203 T10111039
TAF - Terminal Area Forecast
KMTO - Mattoon, Illinois
Updated at 2:28 AM GMT on January 26, 2015 (8:28 PM CST):
No TAF is currently available for this location.
Decoded:
No decoded TAF is available.
PIREP - Pilot Weather Report
KMTO - Mattoon, Illinois
Updated at 2:28 AM GMT on January 26, 2015 (8:28 PM CST):
No PIREP is currently available for this location.
AIRMET - Airmens Meteorological Information
KMTO - Mattoon, Illinois
Updated at 2:28 AM GMT on January 26, 2015 (8:28 PM CST):
No AIRMET is currently available for this location.
SIGMET - Significant Meteorological Information
KMTO - Mattoon, Illinois
Updated at 2:28 AM GMT on January 26, 2015 (8:28 PM CST):
No SIGMET is currently available for this location.
NOTAM - Notice to Airmen
KMTO - Mattoon, Illinois
Updated at 2:28 AM GMT on January 26, 2015 (8:28 PM CST):
No NOTAM is currently available for this location.
Forecast Area
KMTO - Mattoon, Illinois
Updated at 2:28 AM GMT on January 26, 2015 (8:28 PM CST):
No NOTAM is currently available for this location.
Aviation Weather Maps